Time;durP1;ratioP1;P1;durP2;ratioP2;P2;SDS_P1;SDS_P2;PMS_P1;PMS_P2;Temp;Humidity;BMP_temperature;BMP_pressure;BME280_temperature;BME280_humidity;BME280_pressure;Samples;Min_cycle;Max_cycle;Signal;HPM_P1;HPM_P2
2023/03/25 00:01:37;;;;;;;0.20;0.20;;;;;;;9.66;73.74;99822.81;5124750;28;20133;-82
2023/03/25 00:04:07;;;;;;;0.35;0.35;;;;;;;9.52;73.56;99828.56;5115641;28;20094;-82
2023/03/25 00:06:38;;;;;;;1.15;1.08;;;;;;;9.77;72.42;99823.28;5145118;28;20222;-83
2023/03/25 00:09:09;;;;;;;0.88;0.73;;;;;;;10.00;71.86;99825.94;5114447;28;20027;-83
2023/03/25 00:11:40;;;;;;;0.20;0.20;;;;;;;9.75;72.46;99824.25;5125528;28;20042;-82
2023/03/25 00:14:11;;;;;;;0.20;0.20;;;;;;;9.81;72.68;99829.25;5128099;28;20077;-83
2023/03/25 00:16:47;;;;;;;0.30;0.30;;;;;;;9.95;72.05;99820.88;5129971;28;20113;-81
2023/03/25 00:19:26;;;;;;;3.72;2.22;;;;;;;9.99;71.54;99829.47;5112874;28;20034;-82
2023/03/25 00:21:57;;;;;;;0.77;0.77;;;;;;;9.82;71.88;99822.22;5117613;28;20122;-83
2023/03/25 00:24:27;;;;;;;0.30;0.30;;;;;;;9.70;72.68;99821.81;5114471;28;20587;-82
2023/03/25 00:26:58;;;;;;;0.20;0.20;;;;;;;9.82;71.95;99817.00;5135542;28;20041;-83
2023/03/25 00:29:29;;;;;;;0.30;0.30;;;;;;;9.70;72.01;99821.81;5130902;28;20290;-82
2023/03/25 00:31:59;;;;;;;3.70;0.57;;;;;;;9.81;71.91;99824.00;5132123;28;20033;-83
2023/03/25 00:34:30;;;;;;;0.22;0.22;;;;;;;9.74;71.91;99830.41;5129526;28;20067;-83
2023/03/25 00:37:03;;;;;;;1.02;0.85;;;;;;;9.82;71.55;99827.47;5116462;28;20026;-84
2023/03/25 00:39:35;;;;;;;0.10;0.10;;;;;;;9.64;71.35;99829.88;5131534;28;20090;-83
2023/03/25 00:42:10;;;;;;;8.20;0.85;;;;;;;9.70;71.29;99829.66;5126322;28;20041;-82
2023/03/25 00:44:40;;;;;;;0.30;0.30;;;;;;;9.57;71.82;99828.41;5133575;28;20031;-82
2023/03/25 00:47:17;;;;;;;0.20;0.20;;;;;;;9.58;71.12;99832.72;5117268;28;20037;-82
2023/03/25 00:49:48;;;;;;;0.20;0.20;;;;;;;9.62;70.54;99826.47;5113351;28;20061;-82
2023/03/25 00:52:21;;;;;;;0.20;0.20;;;;;;;9.55;70.86;99838.94;5128261;28;20080;-83
2023/03/25 00:54:52;;;;;;;1.42;1.38;;;;;;;9.50;70.75;99842.63;5128726;28;20520;-84
2023/03/25 00:57:23;;;;;;;0.20;0.20;;;;;;;9.47;70.93;99842.72;5127812;28;20035;-83
2023/03/25 00:59:53;;;;;;;0.20;0.20;;;;;;;9.36;70.72;99830.91;5129077;28;20484;-82
2023/03/25 01:02:24;;;;;;;0.30;0.30;;;;;;;9.53;70.50;99834.66;5128832;28;20034;-83
2023/03/25 01:04:56;;;;;;;0.30;0.30;;;;;;;9.30;70.69;99831.09;5125069;28;20070;-82
2023/03/25 01:07:28;;;;;;;0.20;0.20;;;;;;;9.29;70.99;99829.44;5127203;28;20042;-82
2023/03/25 01:09:58;;;;;;;0.50;0.50;;;;;;;9.42;70.44;99822.81;5111439;28;20045;-83
2023/03/25 01:12:29;;;;;;;0.30;0.30;;;;;;;9.30;70.90;99825.88;5128132;28;20035;-83
2023/03/25 01:15:00;;;;;;;2.00;1.08;;;;;;;9.26;71.18;99835.59;5144311;28;20315;-83
2023/03/25 01:17:30;;;;;;;1.95;1.85;;;;;;;9.35;70.85;99831.81;5114168;28;20251;-82
2023/03/25 01:20:01;;;;;;;0.20;0.20;;;;;;;9.26;70.80;99832.16;5140092;28;20046;-83
2023/03/25 01:22:31;;;;;;;2.40;0.88;;;;;;;9.19;70.90;99818.41;5135346;28;20058;-81
2023/03/25 01:25:02;;;;;;;0.30;0.30;;;;;;;9.20;70.44;99816.66;5132268;28;20043;-81
2023/03/25 01:27:32;;;;;;;0.50;0.50;;;;;;;9.20;70.81;99820.13;5113483;28;20042;-83
2023/03/25 01:30:04;;;;;;;0.28;0.28;;;;;;;9.10;71.38;99823.97;5126864;28;20039;-83
2023/03/25 01:32:34;;;;;;;0.20;0.20;;;;;;;9.28;71.23;99818.09;5130000;28;20095;-82
2023/03/25 01:35:06;;;;;;;7.10;1.95;;;;;;;9.10;71.39;99811.75;5141532;28;20468;-82
2023/03/25 01:37:37;;;;;;;0.43;0.43;;;;;;;8.93;72.06;99814.94;5132145;28;20033;-81
2023/03/25 01:40:15;;;;;;;0.35;0.35;;;;;;;9.09;71.56;99807.44;5135854;28;20070;-83
2023/03/25 01:42:45;;;;;;;0.30;0.30;;;;;;;8.98;71.70;99804.31;5155520;28;20027;-82
2023/03/25 01:45:29;;;;;;;0.40;0.40;;;;;;;9.04;71.83;99803.25;5147347;28;20050;-83
2023/03/25 01:48:09;;;;;;;;;;;;;;;9.00;71.91;99804.28;5129465;28;20113;-82
2023/03/25 01:50:44;;;;;;;0.20;0.20;;;;;;;8.99;71.77;99800.81;5133040;28;19914;-82
2023/03/25 01:53:15;;;;;;;0.30;0.30;;;;;;;9.10;71.48;99796.06;5142124;28;20030;-82
2023/03/25 01:55:46;;;;;;;0.30;0.30;;;;;;;9.06;71.16;99799.69;5125559;28;20062;-82
2023/03/25 01:58:19;;;;;;;0.20;0.20;;;;;;;8.91;71.96;99808.06;5127106;28;20125;-83
2023/03/25 02:00:50;;;;;;;0.30;0.30;;;;;;;9.00;71.23;99801.69;5129672;28;20068;-82
2023/03/25 02:03:23;;;;;;;0.30;0.30;;;;;;;8.81;72.21;99797.91;5113937;28;20062;-83
2023/03/25 02:06:01;;;;;;;0.30;0.30;;;;;;;8.82;72.21;99791.78;5141275;28;20094;-84
2023/03/25 02:08:37;;;;;;;0.20;0.20;;;;;;;8.78;71.72;99797.16;5134780;28;20022;-83
2023/03/25 02:11:09;;;;;;;0.20;0.20;;;;;;;8.70;72.51;99788.75;5125397;28;20038;-82
2023/03/25 02:13:40;;;;;;;0.20;0.20;;;;;;;8.71;72.51;99793.06;5115821;28;20035;-82
2023/03/25 02:16:25;;;;;;;0.30;0.30;;;;;;;8.71;72.36;99795.69;5128262;28;20124;-84
2023/03/25 02:19:22;;;;;;;0.20;0.20;;;;;;;8.71;72.80;99798.28;5113485;28;20503;-81
2023/03/25 02:22:13;;;;;;;0.20;0.20;;;;;;;8.70;72.11;99791.34;5100405;28;20047;-83
2023/03/25 02:25:17;;;;;;;0.43;0.43;;;;;;;8.56;72.59;99805.75;5140817;28;20130;-82
2023/03/25 02:27:51;;;;;;;;;;;;;;;8.60;72.88;99803.91;5130984;28;20031;-82
2023/03/25 02:30:35;;;;;;;0.22;0.22;;;;;;;8.59;73.32;99802.19;5146552;28;19914;-83
2023/03/25 02:33:25;;;;;;;0.20;0.20;;;;;;;8.50;73.66;99804.19;5142048;28;20070;-82
2023/03/25 02:36:14;;;;;;;0.20;0.20;;;;;;;8.52;73.73;99805.91;5112862;28;20049;-83
2023/03/25 02:39:10;;;;;;;0.95;0.82;;;;;;;8.52;73.88;99803.28;5148872;28;20023;-82
2023/03/25 02:42:03;;;;;;;0.20;0.20;;;;;;;8.53;74.07;99795.38;5141706;28;20043;-82
2023/03/25 02:44:42;;;;;;;0.50;0.50;;;;;;;8.50;74.49;99801.59;5122727;28;20069;-82
2023/03/25 02:47:17;;;;;;;0.20;0.20;;;;;;;8.62;74.08;99795.09;5127255;28;20114;-82
2023/03/25 02:49:55;;;;;;;0.30;0.30;;;;;;;8.56;74.65;99799.66;5125284;28;20114;-81
2023/03/25 02:52:28;;;;;;;0.30;0.30;;;;;;;8.59;74.73;99800.44;5137832;28;20614;-82
2023/03/25 02:55:03;;;;;;;0.88;0.88;;;;;;;8.54;74.83;99797.09;5127475;28;20062;-82
2023/03/25 02:57:38;;;;;;;0.30;0.30;;;;;;;8.51;74.79;99799.84;5134606;28;20472;-83
2023/03/25 03:00:14;;;;;;;0.65;0.65;;;;;;;8.53;75.00;99789.31;5124355;28;20204;-82
2023/03/25 03:02:59;;;;;;;0.30;0.30;;;;;;;8.59;74.62;99792.59;5138286;28;20094;-83
2023/03/25 03:05:35;;;;;;;0.30;0.30;;;;;;;8.54;74.91;99793.66;5108848;28;20038;-82
2023/03/25 03:08:34;;;;;;;0.75;0.63;;;;;;;8.58;74.84;99790.00;5138133;28;20090;-83
2023/03/25 03:11:20;;;;;;;0.40;0.40;;;;;;;8.51;74.99;99784.16;5132464;28;20038;-82
2023/03/25 03:14:12;;;;;;;0.30;0.30;;;;;;;8.61;74.70;99784.69;5123418;28;20034;-83
2023/03/25 03:16:59;;;;;;;0.25;0.25;;;;;;;8.60;74.36;99789.03;5146108;28;20101;-83
2023/03/25 03:19:51;;;;;;;0.20;0.20;;;;;;;8.49;74.74;99784.19;5144597;28;20058;-81
2023/03/25 03:22:38;;;;;;;0.30;0.30;;;;;;;8.56;74.36;99776.13;5138934;28;20114;-82
2023/03/25 03:25:17;;;;;;;0.30;0.30;;;;;;;8.48;74.55;99784.25;5117295;28;20039;-82
2023/03/25 03:28:04;;;;;;;0.52;0.52;;;;;;;8.48;74.56;99795.53;5150702;23;20034;-88
2023/03/25 03:31:06;;;;;;;;;;;;;;;;;;;;;
2023/03/25 03:34:57;;;;;;;0.30;0.30;;;;;;;8.39;76.57;99781.91;5167827;28;20040;-89
2023/03/25 03:38:34;;;;;;;0.30;0.30;;;;;;;8.40;76.37;99781.84;5137973;28;20050;-88
2023/03/25 03:42:03;;;;;;;4.32;0.93;;;;;;;8.48;75.59;99792.94;5107045;28;20046;-88
2023/03/25 03:45:09;;;;;;;0.30;0.30;;;;;;;8.43;75.41;99786.97;5125911;28;20114;-88
2023/03/25 03:48:17;;;;;;;3.00;1.65;;;;;;;8.42;75.42;99797.50;5111885;28;20728;-88
2023/03/25 03:51:44;;;;;;;0.30;0.30;;;;;;;8.46;74.46;99791.25;5130134;28;20054;-87
2023/03/25 03:55:12;;;;;;;2.10;1.05;;;;;;;8.46;74.59;99797.34;5128818;28;20173;-88
2023/03/25 03:58:27;;;;;;;0.85;0.85;;;;;;;8.38;73.87;99791.50;5126240;28;20381;-89
2023/03/25 04:02:03;;;;;;;1.05;1.05;;;;;;;8.42;73.82;99784.44;5088208;28;20046;-89
2023/03/25 04:05:29;;;;;;;0.30;0.30;;;;;;;8.49;73.38;99786.78;5104689;28;20050;-89
2023/03/25 04:09:03;;;;;;;0.50;0.50;;;;;;;8.43;72.99;99786.97;5150798;28;20030;-88
2023/03/25 04:12:46;;;;;;;;;;;;;;;;;;;;;
2023/03/25 04:16:37;;;;;;;0.73;0.73;;;;;;;8.47;72.28;99785.16;5116673;28;20483;-88
2023/03/25 04:20:38;;;;;;;;;;;;;;;;;;;;;
2023/03/25 04:23:36;;;;;;;0.30;0.30;;;;;;;8.54;71.69;99788.41;5124477;28;20060;-90
2023/03/25 04:26:58;;;;;;;;;;;;;;;;;;;;;
2023/03/25 04:29:46;;;;;;;0.30;0.30;;;;;;;8.57;71.08;99793.53;5138505;28;20044;-89
2023/03/25 04:32:27;;;;;;;0.20;0.20;;;;;;;8.53;71.43;99776.25;5124957;28;20033;-88
2023/03/25 04:35:52;;;;;;;0.30;0.30;;;;;;;8.61;70.88;99782.06;5116827;28;20058;-89
2023/03/25 04:43:06;;;;;;;1.85;1.63;;;;;;;8.58;70.84;99785.66;5080825;29;20878;-88
2023/03/25 04:46:02;;;;;;;0.40;0.40;;;;;;;8.57;70.86;99777.84;5087912;28;20045;-88
2023/03/25 04:51:58;;;;;;;0.50;0.50;;;;;;;8.53;71.16;99781.47;5120961;28;20154;-88
2023/03/25 04:54:47;;;;;;;0.30;0.30;;;;;;;8.58;71.65;99780.44;5157697;28;20088;-88
2023/03/25 04:57:41;;;;;;;0.30;0.30;;;;;;;8.57;71.20;99777.84;5106628;28;20070;-88
2023/03/25 05:19:27;;;;;;;;;;;;;;;;;;;;;
2023/03/25 05:27:01;;;;;;;0.30;0.30;;;;;;;8.45;73.10;99795.63;5063884;29;20046;-88
2023/03/25 05:30:21;;;;;;;0.20;0.20;;;;;;;8.44;72.88;99788.69;5044543;29;20064;-89
2023/03/25 05:33:55;;;;;;;0.30;0.30;;;;;;;8.49;72.74;99789.41;5088546;28;20046;-89
2023/03/25 05:37:34;;;;;;;;;;;;;;;;;;;;;
2023/03/25 05:41:23;;;;;;;0.40;0.40;;;;;;;8.42;72.84;99785.25;5070097;28;20103;-89
2023/03/25 05:44:23;;;;;;;;;;;;;;;;;;;;;
2023/03/25 05:48:08;;;;;;;0.20;0.20;;;;;;;8.48;72.84;99798.16;5145593;28;20070;-89
2023/03/25 05:50:59;;;;;;;0.85;0.85;;;;;;;8.48;72.88;99803.38;5109209;28;20043;-89
2023/03/25 05:54:20;;;;;;;0.30;0.30;;;;;;;8.43;73.05;99802.66;5141479;28;20039;-90
2023/03/25 05:57:43;;;;;;;0.30;0.30;;;;;;;8.49;73.08;99809.50;5120278;28;20379;-88
2023/03/25 06:00:51;;;;;;;0.30;0.30;;;;;;;8.49;74.02;99812.09;5126773;28;20026;-88
2023/03/25 06:04:17;;;;;;;0.30;0.30;;;;;;;8.31;75.94;99829.19;5134145;28;20062;-89
2023/03/25 06:07:50;;;;;;;2.83;1.60;;;;;;;8.24;77.53;99820.72;5135349;28;20524;-89
2023/03/25 06:14:58;;;;;;;2.00;1.63;;;;;;;8.27;78.52;99810.13;5114744;28;20043;-89
2023/03/25 06:17:51;;;;;;;0.83;0.83;;;;;;;8.23;79.01;99811.16;5100240;28;20092;-89
2023/03/25 06:20:38;;;;;;;0.30;0.30;;;;;;;8.23;79.91;99800.69;5069522;28;20039;-89
2023/03/25 06:23:14;;;;;;;0.30;0.30;;;;;;;8.24;79.53;99801.53;5122700;28;20141;-89
2023/03/25 06:26:03;;;;;;;0.30;0.30;;;;;;;8.13;80.86;99814.94;5092527;28;20082;-89
2023/03/25 06:28:47;;;;;;;0.30;0.30;;;;;;;8.12;80.69;99819.34;5130242;28;20585;-89
2023/03/25 06:31:32;;;;;;;0.73;0.73;;;;;;;8.16;80.77;99823.56;5099506;28;20130;-89
2023/03/25 06:34:18;;;;;;;0.38;0.38;;;;;;;8.07;82.39;99820.38;5144385;28;20530;-89
2023/03/25 06:36:55;;;;;;;0.40;0.40;;;;;;;8.16;82.27;99826.16;5100787;28;20050;-89
2023/03/25 06:39:38;;;;;;;0.30;0.30;;;;;;;8.06;83.23;99823.88;5113530;28;20057;-89
2023/03/25 06:42:16;;;;;;;0.40;0.40;;;;;;;8.04;83.88;99826.56;5124015;28;20121;-88
2023/03/25 06:45:11;;;;;;;0.30;0.30;;;;;;;8.01;82.80;99829.25;5123605;28;20413;-88
2023/03/25 06:48:07;;;;;;;0.45;0.45;;;;;;;8.00;82.11;99819.69;5116515;28;20117;-89
2023/03/25 06:54:19;;;;;;;2.22;1.40;;;;;;;8.13;81.17;99821.06;5145693;28;20162;-89
2023/03/25 06:57:05;;;;;;;0.30;0.30;;;;;;;8.08;80.89;99827.31;5116581;28;20069;-89
2023/03/25 07:00:22;;;;;;;;;;;;;;;;;;;;;
2023/03/25 07:03:27;;;;;;;0.50;0.50;;;;;;;8.08;79.97;99830.78;5124861;28;20082;-88
2023/03/25 07:06:19;;;;;;;0.30;0.30;;;;;;;8.17;79.13;99814.81;5133375;23;20143;-91
2023/03/25 07:08:50;;;;;;;0.35;0.35;;;;;;;8.16;78.84;99815.72;5212632;28;20340;-91
2023/03/25 07:11:29;;;;;;;0.82;0.82;;;;;;;8.27;79.06;99811.91;5191628;28;20041;-91
2023/03/25 07:13:59;;;;;;;3.95;1.10;;;;;;;8.23;78.21;99818.13;5180310;28;20026;-91
2023/03/25 07:16:30;;;;;;;0.30;0.30;;;;;;;8.30;78.72;99827.50;5220700;23;20423;-81
2023/03/25 07:19:01;;;;;;;0.30;0.30;;;;;;;8.32;78.35;99825.66;5195132;28;20037;-81
2023/03/25 07:21:31;;;;;;;0.38;0.38;;;;;;;8.32;78.11;99825.66;5182815;28;20053;-81
2023/03/25 07:24:01;;;;;;;0.30;0.30;;;;;;;8.32;78.74;99825.66;5211258;28;20057;-81
2023/03/25 07:26:32;;;;;;;2.25;2.05;;;;;;;8.30;77.83;99836.19;5210014;28;20443;-81
2023/03/25 07:29:02;;;;;;;0.70;0.70;;;;;;;8.38;78.56;99835.09;5208913;28;20048;-81
2023/03/25 07:31:33;;;;;;;2.05;1.30;;;;;;;8.32;78.34;99838.75;5192003;23;20054;-81
2023/03/25 07:34:04;;;;;;;0.30;0.30;;;;;;;8.37;77.98;99831.63;5168932;28;20030;-84
2023/03/25 07:36:35;;;;;;;0.30;0.30;;;;;;;8.34;78.06;99824.75;5128562;28;20563;-82
2023/03/25 07:39:06;;;;;;;0.30;0.30;;;;;;;8.34;77.55;99834.31;5149701;28;20233;-81
2023/03/25 07:41:37;;;;;;;1.75;1.58;;;;;;;8.35;77.21;99830.81;5164261;28;20038;-83
2023/03/25 07:44:07;;;;;;;0.30;0.30;;;;;;;8.42;77.19;99834.94;5163760;28;20026;-82
2023/03/25 07:46:38;;;;;;;0.40;0.40;;;;;;;8.30;77.34;99837.97;5144709;28;20057;-82
2023/03/25 07:49:08;;;;;;;0.30;0.30;;;;;;;8.23;77.60;99842.50;5133784;28;20057;-83
2023/03/25 07:51:38;;;;;;;0.77;0.77;;;;;;;8.23;77.64;99844.25;5129050;28;20054;-82
2023/03/25 07:54:09;;;;;;;0.80;0.80;;;;;;;8.30;77.65;99844.03;5139184;28;20038;-82
2023/03/25 07:56:39;;;;;;;0.30;0.30;;;;;;;8.28;77.01;99842.38;5153291;28;20038;-82
2023/03/25 07:59:10;;;;;;;3.03;1.20;;;;;;;8.35;77.19;99843.88;5146223;28;20031;-83
2023/03/25 08:01:40;;;;;;;1.95;1.15;;;;;;;8.45;76.58;99845.31;5159109;28;20068;-82
2023/03/25 08:04:12;;;;;;;0.50;0.50;;;;;;;8.54;76.87;99841.56;5128370;28;20079;-82
2023/03/25 08:06:42;;;;;;;0.30;0.30;;;;;;;8.62;76.60;99842.16;5136790;28;20451;-82
2023/03/25 08:09:13;;;;;;;0.32;0.32;;;;;;;8.63;75.65;99846.47;5162651;28;20028;-83
2023/03/25 08:11:44;;;;;;;0.40;0.40;;;;;;;8.71;75.45;99854.09;5135591;28;20030;-83
2023/03/25 08:14:15;;;;;;;0.30;0.30;;;;;;;8.74;74.90;99851.34;5146561;28;20022;-82
2023/03/25 08:16:45;;;;;;;1.33;1.23;;;;;;;8.78;73.58;99844.25;5164566;28;20456;-83
2023/03/25 08:19:16;;;;;;;0.30;0.30;;;;;;;8.79;73.84;99862.53;5147150;28;20113;-83
2023/03/25 08:21:46;;;;;;;0.57;0.57;;;;;;;8.79;73.96;99862.53;5143801;28;20525;-83
2023/03/25 08:24:16;;;;;;;6.90;2.05;;;;;;;8.82;74.34;99870.25;5137094;28;20034;-83
2023/03/25 08:26:48;;;;;;;0.30;0.30;;;;;;;8.90;73.42;99874.38;5135888;28;20030;-83
2023/03/25 08:29:19;;;;;;;0.20;0.20;;;;;;;9.01;73.56;99887.13;5149639;28;20075;-82
2023/03/25 08:31:51;;;;;;;0.40;0.40;;;;;;;9.09;73.29;99875.47;5151985;28;20140;-82
2023/03/25 08:34:22;;;;;;;0.43;0.43;;;;;;;9.18;73.21;99873.44;5146595;28;20133;-82
2023/03/25 08:36:52;;;;;;;0.30;0.30;;;;;;;9.14;72.94;99878.78;5148756;28;20037;-82
2023/03/25 08:39:29;;;;;;;0.20;0.20;;;;;;;9.10;71.48;99877.19;5131241;28;20034;-82
2023/03/25 08:41:59;;;;;;;0.30;0.30;;;;;;;9.07;71.30;99879.88;5150935;28;20038;-82
2023/03/25 08:44:30;;;;;;;2.30;1.13;;;;;;;9.12;71.35;99880.59;5149472;28;20497;-82
2023/03/25 08:47:00;;;;;;;1.20;1.20;;;;;;;9.16;71.63;99880.47;5150818;28;20030;-81
2023/03/25 08:49:31;;;;;;;0.30;0.30;;;;;;;9.19;71.90;99869.91;5161136;28;20140;-83
2023/03/25 08:52:03;;;;;;;0.38;0.38;;;;;;;9.26;72.46;99876.63;5135278;28;20177;-83
2023/03/25 08:54:33;;;;;;;0.65;0.65;;;;;;;9.38;72.34;99885.81;5135877;28;20508;-82
2023/03/25 08:57:04;;;;;;;0.43;0.43;;;;;;;9.42;71.51;99874.34;5162876;28;20040;-82
2023/03/25 08:59:35;;;;;;;0.47;0.47;;;;;;;9.47;71.46;99879.38;5130900;28;20058;-83
2023/03/25 09:02:05;;;;;;;0.20;0.20;;;;;;;9.51;71.27;99878.38;5146402;28;20054;-82
2023/03/25 09:04:37;;;;;;;0.30;0.30;;;;;;;9.63;70.79;99904.13;5161352;28;20031;-82
2023/03/25 09:07:09;;;;;;;0.30;0.30;;;;;;;9.57;69.07;99896.50;5160003;28;20030;-82
2023/03/25 09:09:39;;;;;;;0.30;0.30;;;;;;;9.63;69.38;99891.03;5125290;28;20037;-84
2023/03/25 09:12:10;;;;;;;1.17;0.85;;;;;;;9.60;69.85;99891.16;5157196;28;20026;-82
2023/03/25 09:14:40;;;;;;;0.30;0.30;;;;;;;9.58;69.48;99898.19;5126719;28;20058;-83
2023/03/25 09:17:11;;;;;;;0.90;0.90;;;;;;;9.62;68.85;99873.63;5142081;28;20056;-83
2023/03/25 09:19:41;;;;;;;2.20;2.00;;;;;;;9.69;68.98;99880.34;5132721;28;20042;-83
2023/03/25 09:22:12;;;;;;;0.50;0.50;;;;;;;9.68;68.07;99894.34;5151944;28;20523;-83
2023/03/25 09:24:42;;;;;;;0.90;0.88;;;;;;;9.77;68.81;99888.78;5130416;28;20053;-83
2023/03/25 09:27:13;;;;;;;0.57;0.57;;;;;;;9.74;67.82;99888.88;5133772;28;20022;-83
2023/03/25 09:29:43;;;;;;;0.45;0.45;;;;;;;9.81;68.20;99896.50;5124854;28;20528;-83
2023/03/25 09:32:14;;;;;;;0.20;0.20;;;;;;;9.85;69.51;99895.47;5140725;28;20038;-83
2023/03/25 09:34:44;;;;;;;0.30;0.30;;;;;;;9.81;68.74;99902.59;5140935;28;20049;-82
2023/03/25 09:37:15;;;;;;;0.40;0.40;;;;;;;9.87;68.37;99896.28;5147055;28;20029;-82
2023/03/25 09:39:45;;;;;;;0.40;0.40;;;;;;;9.86;67.80;99895.41;5127501;28;20543;-83
2023/03/25 09:42:34;;;;;;;0.30;0.30;;;;;;;9.85;66.99;99887.63;5146411;28;20029;-82
2023/03/25 09:45:16;;;;;;;0.35;0.35;;;;;;;9.86;68.13;99882.31;5143856;28;20042;-83
2023/03/25 09:48:26;;;;;;;0.40;0.40;;;;;;;9.89;68.10;99891.81;5126123;28;20088;-83
2023/03/25 09:51:01;;;;;;;0.70;0.70;;;;;;;9.93;67.62;99894.28;5136056;28;20479;-84
2023/03/25 09:53:49;;;;;;;0.30;0.30;;;;;;;10.02;67.47;99900.94;5155472;28;20033;-84
2023/03/25 09:56:23;;;;;;;0.20;0.20;;;;;;;10.02;68.04;99902.69;5133832;28;20049;-83
2023/03/25 09:59:00;;;;;;;7.85;1.15;;;;;;;10.00;68.32;99901.94;5146717;28;20527;-80
2023/03/25 10:02:25;;;;;;;0.35;0.35;;;;;;;10.05;68.17;99903.44;5146253;28;20043;-82
2023/03/25 10:05:17;;;;;;;0.30;0.30;;;;;;;10.07;68.31;99901.63;5139721;28;20049;-81
2023/03/25 10:08:06;;;;;;;0.30;0.30;;;;;;;10.14;67.51;99897.00;5140784;28;20065;-83
2023/03/25 10:11:08;;;;;;;1.10;1.00;;;;;;;10.08;68.12;99913.81;5128193;28;20420;-81
2023/03/25 10:13:47;;;;;;;4.78;1.05;;;;;;;10.14;67.44;99914.47;5161351;28;20041;-81
2023/03/25 10:16:36;;;;;;;0.52;0.52;;;;;;;10.12;67.27;99916.34;5144688;28;20057;-81
2023/03/25 10:19:39;;;;;;;0.85;0.85;;;;;;;10.12;67.44;99919.78;5140029;28;20074;-81
2023/03/25 10:22:56;;;;;;;0.50;0.50;;;;;;;10.34;66.91;99914.59;5153307;28;20046;-81
2023/03/25 10:25:31;;;;;;;0.70;0.50;;;;;;;10.51;66.99;99902.59;5154645;28;20042;-82
2023/03/25 10:28:04;;;;;;;0.63;0.63;;;;;;;10.50;66.06;99898.28;5144584;28;20031;-82
2023/03/25 10:30:40;;;;;;;0.60;0.60;;;;;;;10.42;66.26;99918.69;5141724;28;20052;-82
2023/03/25 10:33:35;;;;;;;0.52;0.52;;;;;;;10.26;66.78;99926.25;5144351;28;20030;-81
2023/03/25 10:36:18;;;;;;;2.33;0.70;;;;;;;10.33;67.31;99919.91;5142507;28;20069;-82
2023/03/25 10:38:56;;;;;;;0.40;0.40;;;;;;;10.31;67.18;99917.31;5146630;28;20027;-82
2023/03/25 10:41:34;;;;;;;0.30;0.30;;;;;;;10.41;66.43;99922.22;5151563;28;20129;-82
2023/03/25 10:44:09;;;;;;;2.20;1.23;;;;;;;10.42;66.91;99910.84;5164189;28;20290;-82
2023/03/25 10:46:51;;;;;;;0.98;0.98;;;;;;;10.46;65.78;99912.41;5140254;28;20034;-82
2023/03/25 10:49:26;;;;;;;0.38;0.38;;;;;;;10.46;65.62;99907.16;5162832;28;20022;-82
2023/03/25 10:51:58;;;;;;;0.63;0.40;;;;;;;10.42;66.61;99914.28;5160960;28;20077;-81
2023/03/25 10:54:35;;;;;;;0.30;0.30;;;;;;;10.47;66.61;99901.88;5151120;28;20105;-81
2023/03/25 10:57:09;;;;;;;0.50;0.50;;;;;;;10.46;66.63;99904.53;5163467;28;20488;-82
2023/03/25 10:59:54;;;;;;;0.47;0.47;;;;;;;10.47;65.39;99906.25;5129011;28;20047;-83
2023/03/25 11:02:29;;;;;;;1.58;1.48;;;;;;;10.57;64.62;99906.75;5147582;28;20057;-82
2023/03/25 11:05:06;;;;;;;1.10;0.95;;;;;;;10.61;66.44;99906.56;5162797;28;20111;-82
2023/03/25 11:07:40;;;;;;;0.20;0.20;;;;;;;10.76;67.24;99889.34;5161291;28;20030;-83
2023/03/25 11:10:17;;;;;;;2.72;1.17;;;;;;;10.79;66.31;99902.34;5162736;28;20667;-81
2023/03/25 11:12:52;;;;;;;0.60;0.43;;;;;;;10.68;66.07;99917.66;5147443;28;20069;-82
2023/03/25 11:15:29;;;;;;;0.90;0.85;;;;;;;10.63;66.07;99917.84;5148523;28;20688;-81
2023/03/25 11:18:00;;;;;;;6.75;1.75;;;;;;;10.80;66.80;99934.66;5131290;28;20597;-82
2023/03/25 11:20:37;;;;;;;7.68;1.85;;;;;;;11.06;66.94;99954.63;5163861;28;20347;-82
2023/03/25 11:23:17;;;;;;;0.40;0.40;;;;;;;10.98;65.99;99941.78;5133366;28;20042;-82
2023/03/25 11:25:49;;;;;;;0.25;0.25;;;;;;;10.67;67.00;99937.81;5139115;28;20030;-82
2023/03/25 11:28:36;;;;;;;0.52;0.52;;;;;;;10.81;68.43;99945.13;5157174;28;20053;-81
2023/03/25 11:31:11;;;;;;;0.20;0.20;;;;;;;10.88;68.52;99945.72;5148577;28;20069;-81
2023/03/25 11:34:02;;;;;;;2.67;1.77;;;;;;;10.85;68.64;99936.19;5167783;28;20080;-82
2023/03/25 11:36:36;;;;;;;1.13;0.80;;;;;;;10.81;69.68;99946.88;5144158;28;20038;-83
2023/03/25 11:39:17;;;;;;;0.30;0.30;;;;;;;10.87;70.43;99946.63;5141007;28;20032;-83
2023/03/25 11:41:49;;;;;;;0.40;0.40;;;;;;;10.88;70.37;99945.72;5146082;28;20125;-83
2023/03/25 11:44:24;;;;;;;0.20;0.20;;;;;;;10.94;70.68;99934.97;5140839;28;20044;-82
2023/03/25 11:47:01;;;;;;;0.77;0.77;;;;;;;10.80;70.42;99938.16;5168189;28;20018;-84
2023/03/25 11:49:38;;;;;;;2.33;1.13;;;;;;;10.62;72.55;99947.59;5150829;28;20124;-82
2023/03/25 11:52:19;;;;;;;1.00;1.00;;;;;;;10.70;72.22;99956.03;5165676;28;20014;-83
2023/03/25 11:54:56;;;;;;;1.27;0.85;;;;;;;10.59;72.73;99953.00;5157217;28;20460;-83
2023/03/25 11:57:34;;;;;;;0.65;0.65;;;;;;;10.50;74.42;99954.19;5145541;28;20037;-82
2023/03/25 12:00:19;;;;;;;1.17;1.17;;;;;;;10.61;75.58;99948.53;5177814;28;20553;-82
2023/03/25 12:03:20;;;;;;;0.20;0.20;;;;;;;10.26;76.95;99958.59;5146463;28;20046;-83
2023/03/25 12:06:11;;;;;;;0.30;0.30;;;;;;;10.28;77.22;99961.16;5162536;28;20092;-82
2023/03/25 12:08:50;;;;;;;0.45;0.45;;;;;;;10.29;78.15;99953.22;5151260;28;20022;-83
2023/03/25 12:11:41;;;;;;;1.65;1.08;;;;;;;10.11;78.74;99953.94;5166515;28;20144;-82
2023/03/25 12:14:26;;;;;;;0.30;0.30;;;;;;;10.11;78.83;99944.28;5146718;28;20032;-83
2023/03/25 12:17:10;;;;;;;0.77;0.77;;;;;;;10.15;78.89;99931.91;5148642;28;20090;-82
2023/03/25 12:19:54;;;;;;;0.30;0.30;;;;;;;10.18;78.90;99923.94;5164372;28;20042;-83
2023/03/25 12:22:27;;;;;;;;;;;;;;;10.24;77.94;99918.47;5155586;28;20046;-82
2023/03/25 12:25:22;;;;;;;1.40;1.30;;;;;;;10.29;78.78;99911.25;5150091;28;20004;-83
2023/03/25 12:28:31;;;;;;;0.30;0.30;;;;;;;10.75;80.05;99892.88;5155086;28;20464;-82
2023/03/25 12:31:10;;;;;;;2.70;1.30;;;;;;;10.75;78.10;99902.53;5181600;28;20034;-83
2023/03/25 12:33:56;;;;;;;1.17;1.17;;;;;;;10.65;71.48;99887.16;5148044;28;20030;-82
2023/03/25 12:36:42;;;;;;;0.40;0.40;;;;;;;10.68;70.05;99896.66;5147824;28;20042;-84
2023/03/25 12:39:42;;;;;;;0.20;0.20;;;;;;;10.56;72.04;99898.00;5144288;28;20031;-82
2023/03/25 12:42:24;;;;;;;0.30;0.30;;;;;;;10.57;72.50;99897.09;5163810;28;20022;-82
2023/03/25 12:45:26;;;;;;;0.40;0.40;;;;;;;10.55;68.67;99886.69;5131028;28;20036;-81
2023/03/25 12:48:13;;;;;;;0.63;0.63;;;;;;;10.52;67.42;99886.78;5131829;28;20057;-84
2023/03/25 12:50:57;;;;;;;1.90;1.80;;;;;;;10.45;68.20;99887.13;5146188;28;20393;-82
2023/03/25 12:53:58;;;;;;;0.30;0.30;;;;;;;10.46;68.07;99883.56;5136056;28;20037;-82
2023/03/25 12:56:47;;;;;;;3.20;1.48;;;;;;;10.51;68.53;99882.47;5140462;28;20057;-82
2023/03/25 12:59:49;;;;;;;1.35;0.93;;;;;;;10.57;66.33;99897.09;5161399;28;20106;-83
2023/03/25 13:02:38;;;;;;;0.35;0.35;;;;;;;10.47;69.68;99890.50;5178945;28;20405;-83
2023/03/25 13:05:19;;;;;;;0.30;0.30;;;;;;;10.42;68.76;99892.47;5166144;28;20560;-83
2023/03/25 13:07:56;;;;;;;0.30;0.30;;;;;;;10.46;69.61;99891.41;5135564;28;20052;-82
2023/03/25 13:10:35;;;;;;;0.30;0.30;;;;;;;10.31;70.09;99898.97;5148240;28;20233;-83
2023/03/25 13:13:13;;;;;;;0.30;0.30;;;;;;;10.23;70.74;99951.72;5130592;28;20063;-82
2023/03/25 13:15:57;;;;;;;2.83;1.30;;;;;;;9.53;75.53;99965.63;5134996;28;20485;-80
2023/03/25 13:18:46;;;;;;;0.20;0.20;;;;;;;9.29;79.62;99978.63;5137939;28;20515;-80
2023/03/25 13:21:38;;;;;;;0.43;0.43;;;;;;;9.65;78.54;99970.41;5139806;28;20046;-81
2023/03/25 13:24:19;;;;;;;1.10;0.57;;;;;;;9.68;78.19;99991.25;5139296;28;20030;-81
2023/03/25 13:26:52;;;;;;;0.30;0.30;;;;;;;9.69;78.58;99985.13;5137297;28;20073;-81
2023/03/25 13:29:41;;;;;;;1.02;1.02;;;;;;;9.63;78.12;99987.94;5130929;28;20037;-81
2023/03/25 13:32:26;;;;;;;0.30;0.30;;;;;;;9.32;80.69;99989.00;5189576;23;20038;-81
2023/03/25 13:35:06;;;;;;;1.85;1.15;;;;;;;9.24;82.18;99988.38;5176906;28;20034;-81
2023/03/25 13:37:36;;;;;;;0.20;0.20;;;;;;;9.28;81.64;100000.50;5191300;28;20029;-81
2023/03/25 13:40:10;;;;;;;2.72;1.75;;;;;;;8.92;84.13;99982.44;5199665;28;20041;-81
2023/03/25 13:42:47;;;;;;;0.40;0.40;;;;;;;8.99;84.39;99973.50;5177203;28;20062;-80
2023/03/25 13:45:19;;;;;;;0.30;0.30;;;;;;;9.01;85.07;99969.06;5177946;28;20146;-81
2023/03/25 13:48:00;;;;;;;1.40;1.30;;;;;;;9.05;85.01;99954.97;5161388;28;20026;-80
2023/03/25 13:50:31;;;;;;;0.30;0.30;;;;;;;8.99;84.83;99952.56;5187639;28;20042;-82